This is the latest recevied weather packets stored in our database for station/object S56OA-13. If no packets are shown the sender has not sent any weather packets the latest 1 day(s).
| Time | Temp. | Humidity | Pressure | Rain* | Wind** | Luminosity | Snow |
|---|---|---|---|---|---|---|---|
| 1778092422 | 18.89° C | 37% | 959.9 hPa | - | - | - | - |
| 1778085177 | 18.33° C | 37% | 958.8 hPa | - | - | - | - |
| 1778076173 | 17.78° C | 37% | 955.4 hPa | - | - | - | - |
| 1778070768 | 17.22° C | 37% | 954.6 hPa | - | - | - | - |
| 1778068967 | 17.22° C | 37% | 955 hPa | - | - | - | - |
| 1778065365 | 18.33° C | 36% | 957.3 hPa | - | - | - | - |
| 1778063564 | 18.33° C | 36% | 957.1 hPa | - | - | - | - |
| 1778061763 | 18.33° C | 36% | 957.5 hPa | - | - | - | - |
| 1778059961 | 18.33° C | 36% | 958.2 hPa | - | - | - | - |
| 1778056358 | 18.33° C | 36% | 957.1 hPa | - | - | - | - |
| 1778054558 | 17.78° C | 36% | 955.6 hPa | - | - | - | - |
| 1778050955 | 17.22° C | 36% | 953.6 hPa | - | - | - | - |
| 1778049154 | 17.22° C | 36% | 953.5 hPa | - | - | - | - |
| 1778047353 | 17.22° C | 36% | 953.2 hPa | - | - | - | - |
| 1778045553 | 16.67° C | 37% | 951.8 hPa | - | - | - | - |
| 1778043751 | 16.67° C | 36% | 952.1 hPa | - | - | - | - |
| 1778041949 | 16.11° C | 37% | 950.8 hPa | - | - | - | - |
| 1778040148 | 15.56° C | 37% | 950.3 hPa | - | - | - | - |
| 1778038346 | 15.56° C | 37% | 949.4 hPa | - | - | - | - |
| 1778036545 | 15.56° C | 37% | 949.9 hPa | - | - | - | - |
| 1778034744 | 15.56° C | 37% | 950 hPa | - | - | - | - |
| 1778025737 | 16.11° C | 37% | 951.1 hPa | - | - | - | - |
| 1778011328 | 16.11° C | 36% | 950.5 hPa | - | - | - | - |
* Rain since midnight (hover to see other rain measurements)
** Current wind speed in m/s (hover to see current wind gust speed)